createdAt,value
2023-01-10T02:11:23.983Z,54.45
2023-01-10T02:13:51.341Z,54.69
2023-01-10T02:16:18.538Z,54.50
2023-01-10T02:18:45.546Z,54.81
2023-01-10T02:21:15.668Z,54.41
2023-01-10T02:24:04.527Z,54.21
2023-01-10T02:26:42.627Z,54.44
2023-01-10T02:29:46.621Z,54.34
2023-01-10T02:32:28.606Z,54.43
2023-01-10T02:35:11.154Z,54.37
2023-01-10T02:37:44.417Z,54.49
2023-01-10T02:40:30.643Z,54.53
2023-01-10T02:43:10.142Z,54.34
2023-01-10T02:45:49.853Z,54.76
2023-01-10T02:48:17.449Z,54.34
2023-01-10T02:50:52.151Z,54.56
2023-01-10T02:53:23.628Z,54.25
2023-01-10T02:56:03.945Z,54.56
2023-01-10T02:58:39.020Z,54.58
2023-01-10T03:01:09.808Z,54.74
2023-01-10T03:03:46.428Z,54.50
2023-01-10T03:06:24.007Z,54.50
2023-01-10T03:08:58.980Z,54.59
2023-01-10T03:11:39.491Z,54.59
2023-01-10T03:14:14.291Z,54.35
2023-01-10T03:16:41.824Z,54.21
2023-01-10T03:19:13.104Z,54.49
2023-01-10T03:21:40.467Z,54.40
2023-01-10T03:24:13.575Z,54.76
2023-01-10T03:26:47.983Z,54.55
2023-01-10T03:29:21.942Z,54.62
2023-01-10T03:31:52.160Z,54.49
2023-01-10T03:34:19.217Z,54.69
2023-01-10T03:37:03.768Z,54.67
2023-01-10T03:39:34.916Z,54.72
2023-01-10T03:42:17.388Z,54.72
2023-01-10T03:45:01.505Z,54.76
2023-01-10T03:47:41.202Z,54.69
2023-01-10T03:50:14.919Z,54.70
2023-01-10T03:52:41.859Z,54.75
2023-01-10T03:55:13.518Z,54.70
2023-01-10T03:57:45.031Z,54.76
2023-01-10T04:00:12.890Z,54.46
2023-01-10T04:02:39.570Z,54.77
2023-01-10T04:05:07.256Z,54.54
2023-01-10T04:07:34.408Z,54.52
2023-01-10T04:10:01.170Z,54.52
2023-01-10T04:12:27.909Z,54.61
2023-01-10T04:14:55.273Z,54.65
2023-01-10T04:17:22.159Z,54.59
2023-01-10T04:19:49.066Z,54.64
2023-01-10T04:22:16.010Z,54.46
2023-01-10T04:24:43.692Z,54.14
2023-01-10T04:27:10.935Z,53.91
2023-01-10T04:29:38.192Z,54.22
2023-01-10T04:32:05.040Z,54.20
2023-01-10T04:34:34.987Z,54.07
2023-01-10T04:37:01.909Z,54.09
2023-01-10T04:39:29.385Z,54.06
2023-01-10T04:41:56.634Z,54.35
2023-01-10T04:44:23.493Z,54.13
2023-01-10T04:46:50.216Z,54.17
2023-01-10T04:49:17.030Z,54.47
2023-01-10T04:51:43.815Z,54.54
2023-01-10T04:54:10.626Z,54.58
2023-01-10T04:56:37.423Z,54.16
2023-01-10T04:59:05.997Z,54.17
2023-01-10T05:01:34.890Z,54.09
2023-01-10T05:04:02.865Z,53.94
2023-01-10T05:06:29.612Z,53.93
2023-01-10T05:08:56.970Z,54.16
2023-01-10T05:11:23.978Z,53.72
2023-01-10T05:13:50.877Z,54.04
2023-01-10T05:16:18.186Z,53.54
2023-01-10T05:18:44.979Z,53.57
2023-01-10T05:21:12.691Z,53.81
2023-01-10T05:23:39.445Z,53.63
2023-01-10T05:26:11.076Z,53.60
2023-01-10T05:28:38.377Z,53.65
2023-01-10T05:31:06.479Z,53.73
2023-01-10T05:33:33.907Z,53.53
2023-01-10T05:36:01.920Z,53.61
2023-01-10T05:38:29.585Z,53.52
2023-01-10T05:40:58.911Z,53.21
2023-01-10T05:43:25.946Z,53.33
2023-01-10T05:45:52.829Z,53.09
2023-01-10T05:48:19.657Z,52.89
2023-01-10T05:50:46.381Z,52.78
2023-01-10T05:53:13.339Z,52.83
2023-01-10T05:55:40.286Z,53.04
2023-01-10T05:58:07.750Z,52.64
2023-01-10T06:00:35.505Z,52.86
2023-01-10T06:03:03.048Z,52.45
2023-01-10T06:05:30.957Z,52.15
2023-01-10T06:07:59.162Z,51.91
2023-01-10T11:55:46.410Z,44.78
2023-01-10T11:58:14.562Z,44.85
2023-01-10T12:00:48.245Z,44.62
2023-01-10T12:03:28.702Z,44.48
2023-01-10T12:06:06.239Z,44.65
2023-01-10T12:08:37.596Z,44.54
2023-01-10T12:11:31.019Z,44.42
2023-01-10T12:13:59.528Z,44.45
2023-01-10T12:16:28.368Z,44.34
2023-01-10T12:18:59.752Z,44.80
2023-01-10T12:21:42.917Z,44.91
2023-01-10T12:24:15.783Z,44.98
2023-01-10T12:26:42.572Z,44.92
2023-01-10T12:29:15.921Z,45.17
2023-01-10T12:31:42.799Z,45.17
2023-01-10T12:34:14.982Z,45.43
2023-01-10T12:36:55.518Z,45.32
2023-01-10T12:39:24.188Z,45.27
2023-01-10T12:42:50.555Z,45.67
2023-01-10T12:45:28.799Z,45.89
2023-01-10T12:48:01.645Z,45.63
2023-01-10T12:50:32.089Z,46.42
2023-01-10T12:52:58.971Z,45.80
2023-01-10T12:55:28.559Z,46.02
2023-01-10T12:58:00.777Z,46.26
2023-01-10T13:00:47.870Z,46.67
2023-01-10T13:03:19.444Z,46.63
2023-01-10T13:05:48.892Z,46.11
2023-01-10T13:08:17.531Z,45.91
2023-01-10T13:10:45.489Z,45.96
2023-01-10T13:13:36.405Z,46.71
2023-01-10T13:16:09.695Z,47.22
2023-01-10T13:18:36.829Z,48.09
2023-01-10T13:21:08.487Z,48.27
2023-01-10T13:23:58.337Z,48.74
2023-01-10T13:26:25.199Z,48.96
2023-01-10T13:28:59.076Z,49.16
2023-01-10T13:31:32.950Z,49.49
2023-01-10T13:34:06.586Z,49.91
2023-01-10T13:36:38.165Z,49.62
2023-01-10T13:39:08.274Z,49.80
2023-01-10T13:42:33.603Z,49.94
2023-01-10T13:45:03.203Z,50.02
2023-01-10T13:47:40.921Z,50.69
2023-01-10T13:50:24.042Z,50.82
2023-01-10T13:53:12.351Z,51.24
2023-01-10T13:55:41.757Z,51.61
2023-01-10T13:58:40.435Z,51.37
2023-01-10T14:01:44.959Z,51.43
2023-01-10T14:04:31.411Z,51.27
2023-01-10T14:06:58.931Z,51.20
2023-01-10T14:09:35.557Z,51.10
2023-01-10T14:12:04.566Z,51.05
2023-01-10T14:14:38.756Z,50.83
2023-01-10T14:17:13.025Z,50.91
2023-01-10T14:19:42.998Z,50.97
2023-01-10T14:22:30.511Z,50.51
2023-01-10T14:25:02.761Z,50.54
2023-01-10T14:27:50.335Z,50.43
2023-01-10T14:30:20.565Z,50.22
2023-01-10T14:32:50.630Z,50.20
2023-01-10T14:35:22.539Z,50.57
2023-01-10T14:37:57.164Z,50.65
2023-01-10T14:40:43.762Z,50.78
2023-01-10T14:43:15.730Z,50.76
2023-01-10T14:45:58.147Z,50.71
2023-01-10T14:48:26.779Z,50.43
2023-01-10T14:51:25.821Z,50.31
2023-01-10T14:53:57.713Z,50.14
2023-01-10T14:56:48.827Z,50.32
2023-01-10T14:59:30.227Z,50.41
2023-01-10T15:02:10.942Z,50.70
2023-01-10T15:04:38.378Z,51.13
2023-01-10T15:07:12.577Z,51.49
2023-01-10T15:09:39.434Z,51.62
2023-01-10T15:12:07.623Z,51.62
2023-01-10T15:14:36.052Z,51.92
2023-01-10T15:17:05.573Z,52.01
2023-01-10T15:19:34.772Z,51.98
2023-01-10T15:22:02.961Z,51.73
2023-01-10T15:24:35.136Z,51.80
2023-01-10T15:27:08.207Z,51.99
2023-01-10T15:29:36.431Z,51.82
2023-01-10T15:32:33.869Z,51.70
2023-01-10T15:35:01.257Z,51.80
2023-01-10T15:37:37.672Z,51.63
2023-01-10T15:40:05.988Z,51.98
2023-01-10T15:42:34.799Z,52.06
2023-01-10T15:45:27.271Z,52.10
2023-01-10T15:48:02.411Z,51.92
2023-01-10T15:50:38.153Z,52.16
2023-01-10T15:53:09.755Z,52.33
2023-01-10T15:55:55.323Z,52.68
2023-01-10T15:58:34.566Z,52.82
2023-01-10T16:01:01.761Z,52.62
2023-01-10T16:03:33.915Z,52.81
2023-01-10T22:23:32.891Z,69.82
2023-01-10T22:26:10.452Z,68.76
2023-01-10T22:28:37.373Z,68.40
2023-01-10T22:31:04.396Z,68.23
2023-01-10T22:33:32.862Z,68.36
2023-01-10T22:36:07.267Z,68.06
2023-01-10T22:38:34.458Z,67.87
2023-01-10T22:41:18.327Z,68.12
2023-01-10T22:43:45.253Z,68.20
2023-01-10T22:46:15.942Z,68.52
2023-01-10T22:48:43.346Z,68.11
2023-01-10T22:51:10.640Z,68.13
2023-01-10T22:53:37.642Z,68.05
2023-01-10T22:56:05.948Z,68.11
2023-01-10T22:58:33.279Z,68.20
2023-01-10T23:01:03.569Z,67.95
2023-01-10T23:03:30.461Z,68.58
2023-01-10T23:05:57.726Z,68.50
2023-01-10T23:08:25.729Z,68.40
2023-01-10T23:10:54.208Z,68.22
2023-01-10T23:13:22.372Z,68.21
2023-01-10T23:15:59.535Z,67.85
2023-01-10T23:18:26.700Z,68.08
2023-01-10T23:20:53.891Z,68.22
2023-01-10T23:23:20.898Z,68.04
2023-01-10T23:26:01.622Z,68.10
2023-01-10T23:28:33.592Z,68.21
2023-01-10T23:31:00.577Z,68.48
2023-01-10T23:33:27.524Z,67.91
2023-01-10T23:35:54.484Z,68.28
2023-01-10T23:38:21.427Z,68.24
2023-01-10T23:40:48.379Z,68.20
2023-01-10T23:43:15.333Z,68.28
2023-01-10T23:45:43.611Z,68.51
2023-01-10T23:48:11.535Z,68.77
2023-01-10T23:50:38.536Z,68.86
2023-01-10T23:53:06.007Z,68.84
2023-01-10T23:55:33.160Z,69.03
2023-01-10T23:58:00.412Z,68.86
